Kiama Bowling Club, New South Wales

7:10 PM AEDT on February 10, 2016 (GMT +1100)
Kiama | | Change Station
CLOSE
Current Station
Personal Weather Station
Location: Kiama, NEW SOUTH WALES
Elevation: 95 ft
Nearby Weather Stations

Elev 95 ft 34.67 °S, 150.85 °E | Updated 59 seconds ago

Clear
Clear
76.3 °F
Feels Like 78 °F
N
1.1
Wind Variable Wind from SSE
Gusts 3.1 mph

Today
High -- | Low -- °F
--% Chance of Precip.
Yesterday
High -- | Low -- °F
Precip. -- in
Pressure 29.89 in
Visibility -9999.0 miles
Clouds
Heat Index 78 °F
Dew Point 66 °F
Humidity 70%
Rainfall 0.00 in
Snow Depth Not available.
6:24 AM 7:56 PM
Waxing Crescent, 4% visible
METAR YSSY 100800Z 03020KT CAVOK 26/17 Q1012 NOSIG
Pressure 29.89 in
Visibility -9999.0 miles
Clouds
Heat Index 78 °F
Dew Point 66 °F
Humidity 70%
Rainfall 0.00 in
Snow Depth Not available.
6:24 AM 7:56 PM
Waxing Crescent, 4% visible
METAR YSSY 100800Z 03020KT CAVOK 26/17 Q1012 NOSIG

10-Day Weather Forecast

Almanac

Astronomy

Feb. 10, 2016 Rise Set
Actual Time
Civil Twilight
Nautical Twilight
Astronomical Twilight
Moon
Length of Visible Light
Length of Day
Tomorrow will be .
, % of the Moon is Illuminated

Today's Extremes

Country Highs Country Lows

Community

WunderPhotos

Upload Photos

1,891,826 photos uploaded!

WunderBlog® & News

Nearby

Air Quality

  Air Quality AQ Index Pollutant
Not available.

Snow Depth

Station Depth Elevation

Earthquake Activity

City Distance Mag. Time & Date
Minimum magnitude displayed is 2.5.

Coastal Water Temperatures

Place Temperature

Stations

Nearby Weather Stations

Station Location Temp. Windchill Dew Point Humidity Wind Precip. Elev Updated Type